sensor_id;sensor_type;location;lat;lon;timestamp;P1;durP1;ratioP1;P2;durP2;ratioP2
1925;SDS011;964;42.606;23.588;2023-11-19T00:01:57;2.63;;;2.43;;
1925;SDS011;964;42.606;23.588;2023-11-19T00:04:24;3.10;;;2.77;;
1925;SDS011;964;42.606;23.588;2023-11-19T00:06:51;2.23;;;2.03;;
1925;SDS011;964;42.606;23.588;2023-11-19T00:09:17;4.70;;;2.73;;
1925;SDS011;964;42.606;23.588;2023-11-19T00:11:44;3.40;;;3.10;;
1925;SDS011;964;42.606;23.588;2023-11-19T00:14:13;3.80;;;2.93;;
1925;SDS011;964;42.606;23.588;2023-11-19T00:16:40;4.27;;;2.97;;
1925;SDS011;964;42.606;23.588;2023-11-19T00:19:06;4.63;;;3.20;;
1925;SDS011;964;42.606;23.588;2023-11-19T00:21:33;3.17;;;2.90;;
1925;SDS011;964;42.606;23.588;2023-11-19T00:24:01;3.07;;;2.77;;
1925;SDS011;964;42.606;23.588;2023-11-19T00:26:29;2.83;;;2.30;;
1925;SDS011;964;42.606;23.588;2023-11-19T00:28:56;3.43;;;3.13;;
1925;SDS011;964;42.606;23.588;2023-11-19T00:31:25;3.27;;;2.97;;
1925;SDS011;964;42.606;23.588;2023-11-19T00:33:53;3.20;;;2.30;;
1925;SDS011;964;42.606;23.588;2023-11-19T00:36:19;2.47;;;2.27;;
1925;SDS011;964;42.606;23.588;2023-11-19T00:38:49;3.60;;;3.30;;
1925;SDS011;964;42.606;23.588;2023-11-19T00:41:15;3.20;;;2.60;;
1925;SDS011;964;42.606;23.588;2023-11-19T00:43:42;2.37;;;2.17;;
1925;SDS011;964;42.606;23.588;2023-11-19T00:46:09;3.23;;;2.90;;
1925;SDS011;964;42.606;23.588;2023-11-19T00:48:38;4.50;;;3.50;;
1925;SDS011;964;42.606;23.588;2023-11-19T00:51:06;2.23;;;2.10;;
1925;SDS011;964;42.606;23.588;2023-11-19T00:53:32;5.17;;;3.87;;
1925;SDS011;964;42.606;23.588;2023-11-19T00:56:00;3.37;;;2.83;;
1925;SDS011;964;42.606;23.588;2023-11-19T00:58:26;2.77;;;2.53;;
1925;SDS011;964;42.606;23.588;2023-11-19T01:00:54;3.20;;;2.90;;
1925;SDS011;964;42.606;23.588;2023-11-19T01:03:22;2.37;;;2.17;;
1925;SDS011;964;42.606;23.588;2023-11-19T01:05:50;2.40;;;2.20;;
1925;SDS011;964;42.606;23.588;2023-11-19T01:08:17;2.47;;;2.10;;
1925;SDS011;964;42.606;23.588;2023-11-19T01:10:44;2.50;;;1.77;;
1925;SDS011;964;42.606;23.588;2023-11-19T01:13:11;2.50;;;2.30;;
1925;SDS011;964;42.606;23.588;2023-11-19T01:15:37;2.83;;;2.50;;
1925;SDS011;964;42.606;23.588;2023-11-19T01:18:06;3.63;;;2.80;;
1925;SDS011;964;42.606;23.588;2023-11-19T01:20:34;3.17;;;2.90;;
1925;SDS011;964;42.606;23.588;2023-11-19T01:23:02;2.70;;;2.50;;
1925;SDS011;964;42.606;23.588;2023-11-19T01:25:29;3.17;;;2.40;;
1925;SDS011;964;42.606;23.588;2023-11-19T01:27:55;3.40;;;3.10;;
1925;SDS011;964;42.606;23.588;2023-11-19T01:30:23;2.97;;;2.60;;
1925;SDS011;964;42.606;23.588;2023-11-19T01:32:50;5.00;;;2.63;;
1925;SDS011;964;42.606;23.588;2023-11-19T01:35:17;2.23;;;1.97;;
1925;SDS011;964;42.606;23.588;2023-11-19T01:37:44;3.50;;;2.90;;
1925;SDS011;964;42.606;23.588;2023-11-19T01:40:12;4.60;;;3.70;;
1925;SDS011;964;42.606;23.588;2023-11-19T01:42:40;2.90;;;2.60;;
1925;SDS011;964;42.606;23.588;2023-11-19T01:45:07;3.20;;;2.90;;
1925;SDS011;964;42.606;23.588;2023-11-19T01:47:35;2.57;;;2.37;;
1925;SDS011;964;42.606;23.588;2023-11-19T01:50:03;3.43;;;3.13;;
1925;SDS011;964;42.606;23.588;2023-11-19T01:52:34;4.30;;;2.53;;
1925;SDS011;964;42.606;23.588;2023-11-19T01:55:02;3.37;;;2.90;;
1925;SDS011;964;42.606;23.588;2023-11-19T01:57:32;3.20;;;2.70;;
1925;SDS011;964;42.606;23.588;2023-11-19T01:59:59;3.30;;;3.00;;
1925;SDS011;964;42.606;23.588;2023-11-19T02:02:27;2.57;;;2.37;;
1925;SDS011;964;42.606;23.588;2023-11-19T02:04:54;2.87;;;2.60;;
1925;SDS011;964;42.606;23.588;2023-11-19T02:07:20;4.10;;;2.87;;
1925;SDS011;964;42.606;23.588;2023-11-19T02:09:48;3.20;;;2.90;;
1925;SDS011;964;42.606;23.588;2023-11-19T02:12:14;3.10;;;2.80;;
1925;SDS011;964;42.606;23.588;2023-11-19T02:14:42;3.53;;;3.20;;
1925;SDS011;964;42.606;23.588;2023-11-19T02:17:24;3.47;;;3.17;;
1925;SDS011;964;42.606;23.588;2023-11-19T02:19:51;2.63;;;2.43;;
1925;SDS011;964;42.606;23.588;2023-11-19T02:22:18;2.77;;;2.00;;
1925;SDS011;964;42.606;23.588;2023-11-19T02:24:45;3.53;;;2.80;;
1925;SDS011;964;42.606;23.588;2023-11-19T02:27:16;2.10;;;1.90;;
1925;SDS011;964;42.606;23.588;2023-11-19T02:29:53;2.93;;;2.07;;
1925;SDS011;964;42.606;23.588;2023-11-19T02:32:20;3.10;;;2.27;;
1925;SDS011;964;42.606;23.588;2023-11-19T02:34:47;2.50;;;2.30;;
1925;SDS011;964;42.606;23.588;2023-11-19T02:37:13;3.10;;;2.80;;
1925;SDS011;964;42.606;23.588;2023-11-19T02:39:40;4.60;;;2.70;;
1925;SDS011;964;42.606;23.588;2023-11-19T02:42:08;3.43;;;2.70;;
1925;SDS011;964;42.606;23.588;2023-11-19T02:44:36;2.87;;;2.57;;
1925;SDS011;964;42.606;23.588;2023-11-19T02:47:06;4.17;;;3.10;;
1925;SDS011;964;42.606;23.588;2023-11-19T02:49:34;3.37;;;3.07;;
1925;SDS011;964;42.606;23.588;2023-11-19T02:52:02;5.23;;;3.40;;
1925;SDS011;964;42.606;23.588;2023-11-19T02:54:30;3.30;;;2.80;;
1925;SDS011;964;42.606;23.588;2023-11-19T02:57:00;2.53;;;2.33;;
1925;SDS011;964;42.606;23.588;2023-11-19T02:59:28;2.90;;;2.47;;
1925;SDS011;964;42.606;23.588;2023-11-19T03:02:04;2.53;;;2.33;;
1925;SDS011;964;42.606;23.588;2023-11-19T03:04:33;2.20;;;2.10;;
1925;SDS011;964;42.606;23.588;2023-11-19T03:07:00;2.47;;;2.27;;
1925;SDS011;964;42.606;23.588;2023-11-19T03:09:27;2.97;;;2.67;;
1925;SDS011;964;42.606;23.588;2023-11-19T03:11:54;2.70;;;2.50;;
1925;SDS011;964;42.606;23.588;2023-11-19T03:14:21;3.40;;;2.80;;
1925;SDS011;964;42.606;23.588;2023-11-19T03:16:49;3.70;;;2.50;;
1925;SDS011;964;42.606;23.588;2023-11-19T03:19:16;1.80;;;1.60;;
1925;SDS011;964;42.606;23.588;2023-11-19T03:21:44;2.30;;;2.10;;
1925;SDS011;964;42.606;23.588;2023-11-19T03:24:12;3.33;;;3.03;;
1925;SDS011;964;42.606;23.588;2023-11-19T03:26:40;2.67;;;2.47;;
1925;SDS011;964;42.606;23.588;2023-11-19T03:29:07;2.33;;;2.23;;
1925;SDS011;964;42.606;23.588;2023-11-19T03:31:34;2.50;;;2.30;;
1925;SDS011;964;42.606;23.588;2023-11-19T03:34:01;3.03;;;2.60;;
1925;SDS011;964;42.606;23.588;2023-11-19T03:36:31;2.60;;;2.17;;
1925;SDS011;964;42.606;23.588;2023-11-19T03:39:00;2.63;;;2.43;;
1925;SDS011;964;42.606;23.588;2023-11-19T03:41:28;3.83;;;3.00;;
1925;SDS011;964;42.606;23.588;2023-11-19T03:43:55;2.60;;;1.87;;
1925;SDS011;964;42.606;23.588;2023-11-19T03:46:22;3.30;;;3.00;;
1925;SDS011;964;42.606;23.588;2023-11-19T03:48:49;3.30;;;3.00;;
1925;SDS011;964;42.606;23.588;2023-11-19T03:51:16;2.87;;;2.43;;
1925;SDS011;964;42.606;23.588;2023-11-19T03:53:43;3.60;;;2.87;;
1925;SDS011;964;42.606;23.588;2023-11-19T03:56:12;2.17;;;1.97;;
1925;SDS011;964;42.606;23.588;2023-11-19T03:58:39;2.50;;;2.30;;
1925;SDS011;964;42.606;23.588;2023-11-19T04:01:10;4.90;;;3.27;;
1925;SDS011;964;42.606;23.588;2023-11-19T04:03:37;3.13;;;2.83;;
1925;SDS011;964;42.606;23.588;2023-11-19T04:06:04;2.00;;;1.90;;
1925;SDS011;964;42.606;23.588;2023-11-19T04:08:31;2.37;;;1.83;;
1925;SDS011;964;42.606;23.588;2023-11-19T04:10:58;3.10;;;2.43;;
1925;SDS011;964;42.606;23.588;2023-11-19T04:13:27;3.17;;;2.00;;
1925;SDS011;964;42.606;23.588;2023-11-19T04:15:54;1.80;;;1.57;;
1925;SDS011;964;42.606;23.588;2023-11-19T04:18:20;2.77;;;2.43;;
1925;SDS011;964;42.606;23.588;2023-11-19T04:20:47;3.00;;;2.40;;
1925;SDS011;964;42.606;23.588;2023-11-19T04:23:14;2.80;;;2.60;;
1925;SDS011;964;42.606;23.588;2023-11-19T04:25:41;3.00;;;2.70;;
1925;SDS011;964;42.606;23.588;2023-11-19T04:28:08;3.23;;;2.93;;
1925;SDS011;964;42.606;23.588;2023-11-19T04:30:36;2.60;;;2.40;;
1925;SDS011;964;42.606;23.588;2023-11-19T04:33:04;2.77;;;2.57;;
1925;SDS011;964;42.606;23.588;2023-11-19T04:35:31;2.10;;;1.90;;
1925;SDS011;964;42.606;23.588;2023-11-19T04:37:57;3.07;;;2.53;;
1925;SDS011;964;42.606;23.588;2023-11-19T04:40:24;3.27;;;2.97;;
1925;SDS011;964;42.606;23.588;2023-11-19T04:42:51;5.03;;;2.97;;
1925;SDS011;964;42.606;23.588;2023-11-19T04:45:18;4.53;;;3.90;;
1925;SDS011;964;42.606;23.588;2023-11-19T04:47:46;2.23;;;2.00;;
1925;SDS011;964;42.606;23.588;2023-11-19T04:50:13;2.40;;;2.20;;
1925;SDS011;964;42.606;23.588;2023-11-19T04:52:40;2.10;;;1.90;;
1925;SDS011;964;42.606;23.588;2023-11-19T04:55:07;3.70;;;2.87;;
1925;SDS011;964;42.606;23.588;2023-11-19T04:57:36;2.50;;;2.30;;
1925;SDS011;964;42.606;23.588;2023-11-19T05:00:03;2.70;;;2.43;;
1925;SDS011;964;42.606;23.588;2023-11-19T05:02:32;2.00;;;1.90;;
1925;SDS011;964;42.606;23.588;2023-11-19T05:05:00;3.20;;;2.37;;
1925;SDS011;964;42.606;23.588;2023-11-19T05:07:27;4.00;;;2.50;;
1925;SDS011;964;42.606;23.588;2023-11-19T05:09:54;3.67;;;2.40;;
1925;SDS011;964;42.606;23.588;2023-11-19T05:12:21;2.70;;;2.00;;
1925;SDS011;964;42.606;23.588;2023-11-19T05:14:48;3.00;;;2.57;;
1925;SDS011;964;42.606;23.588;2023-11-19T05:17:15;2.47;;;2.27;;
1925;SDS011;964;42.606;23.588;2023-11-19T05:19:44;3.07;;;2.87;;
1925;SDS011;964;42.606;23.588;2023-11-19T05:22:12;2.67;;;2.37;;
1925;SDS011;964;42.606;23.588;2023-11-19T05:24:39;3.33;;;2.33;;
1925;SDS011;964;42.606;23.588;2023-11-19T05:27:06;2.00;;;1.83;;
1925;SDS011;964;42.606;23.588;2023-11-19T05:29:32;2.80;;;2.60;;
1925;SDS011;964;42.606;23.588;2023-11-19T05:31:59;3.87;;;2.73;;
1925;SDS011;964;42.606;23.588;2023-11-19T05:34:27;3.53;;;3.20;;
1925;SDS011;964;42.606;23.588;2023-11-19T05:36:54;1.93;;;1.83;;
1925;SDS011;964;42.606;23.588;2023-11-19T05:39:22;3.77;;;2.13;;
1925;SDS011;964;42.606;23.588;2023-11-19T05:41:49;2.60;;;1.97;;
1925;SDS011;964;42.606;23.588;2023-11-19T05:44:16;2.43;;;2.23;;
1925;SDS011;964;42.606;23.588;2023-11-19T05:46:43;4.27;;;2.60;;
1925;SDS011;964;42.606;23.588;2023-11-19T05:49:10;3.53;;;2.80;;
1925;SDS011;964;42.606;23.588;2023-11-19T05:51:38;2.80;;;2.43;;
1925;SDS011;964;42.606;23.588;2023-11-19T05:54:06;2.50;;;2.20;;
1925;SDS011;964;42.606;23.588;2023-11-19T05:56:34;2.83;;;2.50;;
1925;SDS011;964;42.606;23.588;2023-11-19T05:59:01;7.03;;;2.90;;
1925;SDS011;964;42.606;23.588;2023-11-19T06:01:32;2.77;;;2.50;;
1925;SDS011;964;42.606;23.588;2023-11-19T06:03:59;2.33;;;2.00;;
1925;SDS011;964;42.606;23.588;2023-11-19T06:06:26;3.00;;;2.70;;
1925;SDS011;964;42.606;23.588;2023-11-19T06:08:52;2.03;;;1.60;;
1925;SDS011;964;42.606;23.588;2023-11-19T06:11:20;2.77;;;1.80;;
1925;SDS011;964;42.606;23.588;2023-11-19T06:13:48;2.93;;;2.13;;
1925;SDS011;964;42.606;23.588;2023-11-19T06:16:16;2.30;;;2.10;;
1925;SDS011;964;42.606;23.588;2023-11-19T06:18:42;2.13;;;1.93;;
1925;SDS011;964;42.606;23.588;2023-11-19T06:21:10;2.67;;;2.47;;
1925;SDS011;964;42.606;23.588;2023-11-19T06:23:37;1.90;;;1.60;;
1925;SDS011;964;42.606;23.588;2023-11-19T06:26:04;3.10;;;2.80;;
1925;SDS011;964;42.606;23.588;2023-11-19T06:28:31;2.07;;;1.97;;
1925;SDS011;964;42.606;23.588;2023-11-19T06:30:59;2.97;;;2.70;;
1925;SDS011;964;42.606;23.588;2023-11-19T06:33:26;2.27;;;2.17;;
1925;SDS011;964;42.606;23.588;2023-11-19T06:35:56;2.20;;;2.00;;
1925;SDS011;964;42.606;23.588;2023-11-19T06:38:23;2.80;;;2.53;;
1925;SDS011;964;42.606;23.588;2023-11-19T06:40:49;2.23;;;1.97;;
1925;SDS011;964;42.606;23.588;2023-11-19T06:43:23;4.30;;;2.77;;
1925;SDS011;964;42.606;23.588;2023-11-19T06:45:50;2.03;;;1.80;;
1925;SDS011;964;42.606;23.588;2023-11-19T06:48:20;3.87;;;2.70;;
1925;SDS011;964;42.606;23.588;2023-11-19T06:50:46;3.20;;;2.10;;
1925;SDS011;964;42.606;23.588;2023-11-19T06:53:13;2.60;;;2.40;;
1925;SDS011;964;42.606;23.588;2023-11-19T06:55:40;2.47;;;2.27;;
1925;SDS011;964;42.606;23.588;2023-11-19T06:58:07;3.70;;;3.40;;
1925;SDS011;964;42.606;23.588;2023-11-19T07:00:34;2.13;;;2.00;;
1925;SDS011;964;42.606;23.588;2023-11-19T07:03:01;2.37;;;1.80;;
1925;SDS011;964;42.606;23.588;2023-11-19T07:05:29;3.00;;;2.57;;
1925;SDS011;964;42.606;23.588;2023-11-19T07:07:56;2.80;;;2.60;;
1925;SDS011;964;42.606;23.588;2023-11-19T07:10:23;4.30;;;3.90;;
1925;SDS011;964;42.606;23.588;2023-11-19T07:12:49;4.10;;;3.67;;
1925;SDS011;964;42.606;23.588;2023-11-19T07:15:16;5.10;;;3.40;;
1925;SDS011;964;42.606;23.588;2023-11-19T07:17:44;4.37;;;3.10;;
1925;SDS011;964;42.606;23.588;2023-11-19T07:20:11;3.60;;;2.73;;
1925;SDS011;964;42.606;23.588;2023-11-19T07:22:43;3.90;;;2.60;;
1925;SDS011;964;42.606;23.588;2023-11-19T07:25:10;4.60;;;3.10;;
1925;SDS011;964;42.606;23.588;2023-11-19T07:27:38;5.33;;;3.90;;
1925;SDS011;964;42.606;23.588;2023-11-19T07:30:05;3.07;;;2.20;;
1925;SDS011;964;42.606;23.588;2023-11-19T07:32:33;2.33;;;2.13;;
1925;SDS011;964;42.606;23.588;2023-11-19T07:35:00;5.13;;;2.37;;
1925;SDS011;964;42.606;23.588;2023-11-19T07:37:27;2.57;;;2.37;;
1925;SDS011;964;42.606;23.588;2023-11-19T07:39:55;2.30;;;2.03;;
1925;SDS011;964;42.606;23.588;2023-11-19T07:42:22;4.20;;;2.30;;
1925;SDS011;964;42.606;23.588;2023-11-19T07:44:49;3.43;;;2.60;;
1925;SDS011;964;42.606;23.588;2023-11-19T07:47:16;4.00;;;2.23;;
1925;SDS011;964;42.606;23.588;2023-11-19T07:49:42;2.10;;;1.90;;
1925;SDS011;964;42.606;23.588;2023-11-19T07:52:10;2.40;;;2.20;;
1925;SDS011;964;42.606;23.588;2023-11-19T07:54:36;3.53;;;2.50;;
1925;SDS011;964;42.606;23.588;2023-11-19T07:57:05;1.73;;;1.60;;
1925;SDS011;964;42.606;23.588;2023-11-19T07:59:31;4.60;;;3.40;;
1925;SDS011;964;42.606;23.588;2023-11-19T08:01:58;3.40;;;2.60;;
1925;SDS011;964;42.606;23.588;2023-11-19T08:04:25;3.50;;;3.20;;
1925;SDS011;964;42.606;23.588;2023-11-19T08:06:52;2.60;;;2.40;;
1925;SDS011;964;42.606;23.588;2023-11-19T08:09:18;3.03;;;2.20;;
1925;SDS011;964;42.606;23.588;2023-11-19T08:11:45;3.30;;;2.97;;
1925;SDS011;964;42.606;23.588;2023-11-19T08:14:13;3.07;;;2.53;;
1925;SDS011;964;42.606;23.588;2023-11-19T08:16:40;4.03;;;3.03;;
1925;SDS011;964;42.606;23.588;2023-11-19T08:19:06;3.10;;;2.70;;
1925;SDS011;964;42.606;23.588;2023-11-19T08:21:33;2.70;;;2.23;;
1925;SDS011;964;42.606;23.588;2023-11-19T08:24:00;3.30;;;2.23;;
1925;SDS011;964;42.606;23.588;2023-11-19T08:26:28;2.90;;;2.60;;
1925;SDS011;964;42.606;23.588;2023-11-19T08:28:55;2.40;;;2.10;;
1925;SDS011;964;42.606;23.588;2023-11-19T08:31:24;2.93;;;2.73;;
1925;SDS011;964;42.606;23.588;2023-11-19T08:33:51;3.10;;;2.63;;
1925;SDS011;964;42.606;23.588;2023-11-19T08:36:17;7.27;;;3.70;;
1925;SDS011;964;42.606;23.588;2023-11-19T08:38:44;2.63;;;2.17;;
1925;SDS011;964;42.606;23.588;2023-11-19T08:41:11;5.10;;;2.93;;
1925;SDS011;964;42.606;23.588;2023-11-19T08:43:38;3.03;;;2.73;;
1925;SDS011;964;42.606;23.588;2023-11-19T08:46:09;3.67;;;3.37;;
1925;SDS011;964;42.606;23.588;2023-11-19T08:48:38;2.77;;;2.30;;
1925;SDS011;964;42.606;23.588;2023-11-19T08:51:05;4.40;;;3.20;;
1925;SDS011;964;42.606;23.588;2023-11-19T08:53:32;3.40;;;3.10;;
1925;SDS011;964;42.606;23.588;2023-11-19T08:55:58;2.60;;;2.40;;
1925;SDS011;964;42.606;23.588;2023-11-19T08:58:25;2.53;;;2.30;;
1925;SDS011;964;42.606;23.588;2023-11-19T09:00:52;2.83;;;2.60;;
1925;SDS011;964;42.606;23.588;2023-11-19T09:03:19;3.90;;;3.10;;
1925;SDS011;964;42.606;23.588;2023-11-19T09:05:48;2.60;;;2.30;;
1925;SDS011;964;42.606;23.588;2023-11-19T09:08:14;3.03;;;2.53;;
1925;SDS011;964;42.606;23.588;2023-11-19T09:10:41;2.93;;;2.30;;
1925;SDS011;964;42.606;23.588;2023-11-19T09:13:08;2.40;;;2.03;;
1925;SDS011;964;42.606;23.588;2023-11-19T09:15:34;4.03;;;3.67;;
1925;SDS011;964;42.606;23.588;2023-11-19T09:18:01;3.53;;;2.80;;
1925;SDS011;964;42.606;23.588;2023-11-19T09:20:30;2.70;;;2.50;;
1925;SDS011;964;42.606;23.588;2023-11-19T09:23:04;2.73;;;2.10;;
1925;SDS011;964;42.606;23.588;2023-11-19T09:25:31;2.10;;;1.90;;
1925;SDS011;964;42.606;23.588;2023-11-19T09:27:58;1.80;;;1.70;;
1925;SDS011;964;42.606;23.588;2023-11-19T09:30:24;2.93;;;2.20;;
1925;SDS011;964;42.606;23.588;2023-11-19T09:32:51;3.13;;;2.83;;
1925;SDS011;964;42.606;23.588;2023-11-19T09:35:18;2.30;;;2.10;;
1925;SDS011;964;42.606;23.588;2023-11-19T09:37:45;3.00;;;2.73;;
1925;SDS011;964;42.606;23.588;2023-11-19T09:40:13;4.30;;;2.60;;
1925;SDS011;964;42.606;23.588;2023-11-19T09:42:42;2.13;;;1.87;;
1925;SDS011;964;42.606;23.588;2023-11-19T09:45:12;3.87;;;2.83;;
1925;SDS011;964;42.606;23.588;2023-11-19T09:47:40;2.90;;;2.30;;
1925;SDS011;964;42.606;23.588;2023-11-19T09:50:09;2.90;;;2.70;;
1925;SDS011;964;42.606;23.588;2023-11-19T09:52:40;2.37;;;2.17;;
1925;SDS011;964;42.606;23.588;2023-11-19T09:55:07;2.70;;;2.33;;
1925;SDS011;964;42.606;23.588;2023-11-19T09:57:36;3.20;;;2.53;;
1925;SDS011;964;42.606;23.588;2023-11-19T10:00:06;4.13;;;3.03;;
1925;SDS011;964;42.606;23.588;2023-11-19T10:02:35;3.30;;;3.00;;
1925;SDS011;964;42.606;23.588;2023-11-19T10:05:04;5.00;;;3.10;;
1925;SDS011;964;42.606;23.588;2023-11-19T10:07:32;3.10;;;2.80;;
1925;SDS011;964;42.606;23.588;2023-11-19T10:09:59;3.23;;;2.53;;
1925;SDS011;964;42.606;23.588;2023-11-19T10:12:27;2.40;;;2.20;;
1925;SDS011;964;42.606;23.588;2023-11-19T10:14:56;3.50;;;2.50;;
1925;SDS011;964;42.606;23.588;2023-11-19T10:17:27;3.10;;;2.67;;
1925;SDS011;964;42.606;23.588;2023-11-19T10:19:55;3.20;;;2.70;;
1925;SDS011;964;42.606;23.588;2023-11-19T10:22:22;3.13;;;2.83;;
1925;SDS011;964;42.606;23.588;2023-11-19T10:24:49;4.33;;;3.43;;
1925;SDS011;964;42.606;23.588;2023-11-19T10:27:16;3.37;;;2.57;;
1925;SDS011;964;42.606;23.588;2023-11-19T10:29:44;3.30;;;2.60;;
1925;SDS011;964;42.606;23.588;2023-11-19T10:32:13;2.77;;;2.57;;
1925;SDS011;964;42.606;23.588;2023-11-19T10:34:41;2.57;;;2.37;;
1925;SDS011;964;42.606;23.588;2023-11-19T10:37:08;2.50;;;2.30;;
1925;SDS011;964;42.606;23.588;2023-11-19T10:39:53;3.13;;;2.83;;
1925;SDS011;964;42.606;23.588;2023-11-19T10:42:21;3.00;;;2.70;;
1925;SDS011;964;42.606;23.588;2023-11-19T10:44:48;3.23;;;2.93;;
1925;SDS011;964;42.606;23.588;2023-11-19T10:47:16;3.17;;;2.53;;
1925;SDS011;964;42.606;23.588;2023-11-19T10:49:45;3.33;;;2.50;;
1925;SDS011;964;42.606;23.588;2023-11-19T10:52:13;3.10;;;2.53;;
1925;SDS011;964;42.606;23.588;2023-11-19T10:54:44;3.50;;;2.43;;
1925;SDS011;964;42.606;23.588;2023-11-19T10:57:18;3.50;;;3.13;;
1925;SDS011;964;42.606;23.588;2023-11-19T10:59:47;3.03;;;2.77;;
1925;SDS011;964;42.606;23.588;2023-11-19T11:02:19;4.80;;;3.60;;
1925;SDS011;964;42.606;23.588;2023-11-19T11:04:50;3.20;;;2.90;;
1925;SDS011;964;42.606;23.588;2023-11-19T11:07:18;2.50;;;2.30;;
1925;SDS011;964;42.606;23.588;2023-11-19T11:09:50;2.33;;;2.13;;
1925;SDS011;964;42.606;23.588;2023-11-19T11:12:18;2.50;;;2.10;;
1925;SDS011;964;42.606;23.588;2023-11-19T11:14:48;3.10;;;2.50;;
1925;SDS011;964;42.606;23.588;2023-11-19T11:17:17;3.00;;;2.70;;
1925;SDS011;964;42.606;23.588;2023-11-19T11:19:47;2.53;;;2.30;;
1925;SDS011;964;42.606;23.588;2023-11-19T11:22:14;2.60;;;2.40;;
1925;SDS011;964;42.606;23.588;2023-11-19T11:25:06;3.63;;;2.43;;
1925;SDS011;964;42.606;23.588;2023-11-19T11:27:58;2.47;;;2.27;;
1925;SDS011;964;42.606;23.588;2023-11-19T11:30:40;4.33;;;3.00;;
1925;SDS011;964;42.606;23.588;2023-11-19T11:33:30;2.97;;;2.03;;
1925;SDS011;964;42.606;23.588;2023-11-19T11:36:10;2.97;;;2.47;;
1925;SDS011;964;42.606;23.588;2023-11-19T11:38:44;2.73;;;2.53;;
1925;SDS011;964;42.606;23.588;2023-11-19T11:41:15;3.83;;;2.73;;
1925;SDS011;964;42.606;23.588;2023-11-19T11:43:44;3.27;;;2.93;;
1925;SDS011;964;42.606;23.588;2023-11-19T11:49:13;2.37;;;2.17;;
1925;SDS011;964;42.606;23.588;2023-11-19T11:54:27;3.27;;;2.97;;
1925;SDS011;964;42.606;23.588;2023-11-19T11:57:02;4.43;;;3.40;;
1925;SDS011;964;42.606;23.588;2023-11-19T11:59:37;3.10;;;2.60;;
1925;SDS011;964;42.606;23.588;2023-11-19T12:02:14;3.93;;;2.80;;
1925;SDS011;964;42.606;23.588;2023-11-19T12:04:44;2.67;;;2.47;;
1925;SDS011;964;42.606;23.588;2023-11-19T12:07:15;3.07;;;1.90;;
1925;SDS011;964;42.606;23.588;2023-11-19T12:09:46;3.10;;;2.70;;
1925;SDS011;964;42.606;23.588;2023-11-19T12:12:21;3.13;;;2.83;;
1925;SDS011;964;42.606;23.588;2023-11-19T12:15:00;3.03;;;2.80;;
1925;SDS011;964;42.606;23.588;2023-11-19T12:17:48;4.40;;;2.97;;
1925;SDS011;964;42.606;23.588;2023-11-19T12:20:17;3.37;;;3.07;;
1925;SDS011;964;42.606;23.588;2023-11-19T12:22:46;2.47;;;2.27;;
1925;SDS011;964;42.606;23.588;2023-11-19T12:25:14;2.43;;;2.10;;
1925;SDS011;964;42.606;23.588;2023-11-19T12:27:43;3.80;;;3.33;;
1925;SDS011;964;42.606;23.588;2023-11-19T12:30:11;2.90;;;2.67;;
1925;SDS011;964;42.606;23.588;2023-11-19T12:32:39;5.23;;;3.40;;
1925;SDS011;964;42.606;23.588;2023-11-19T12:35:07;3.00;;;2.80;;
1925;SDS011;964;42.606;23.588;2023-11-19T12:37:41;3.57;;;3.07;;
1925;SDS011;964;42.606;23.588;2023-11-19T12:40:13;3.23;;;2.97;;
1925;SDS011;964;42.606;23.588;2023-11-19T12:42:41;3.40;;;3.10;;
1925;SDS011;964;42.606;23.588;2023-11-19T12:45:08;3.40;;;3.10;;
1925;SDS011;964;42.606;23.588;2023-11-19T12:47:37;2.90;;;2.70;;
1925;SDS011;964;42.606;23.588;2023-11-19T12:50:05;2.33;;;2.00;;
1925;SDS011;964;42.606;23.588;2023-11-19T12:52:33;3.03;;;2.80;;
1925;SDS011;964;42.606;23.588;2023-11-19T12:55:01;3.13;;;2.80;;
1925;SDS011;964;42.606;23.588;2023-11-19T12:57:35;3.37;;;2.97;;
1925;SDS011;964;42.606;23.588;2023-11-19T13:00:04;4.33;;;3.40;;
1925;SDS011;964;42.606;23.588;2023-11-19T13:02:47;3.43;;;3.13;;
1925;SDS011;964;42.606;23.588;2023-11-19T13:05:22;3.20;;;2.90;;
1925;SDS011;964;42.606;23.588;2023-11-19T13:08:00;4.47;;;3.10;;
1925;SDS011;964;42.606;23.588;2023-11-19T13:10:29;3.13;;;2.83;;
1925;SDS011;964;42.606;23.588;2023-11-19T13:13:00;3.60;;;3.03;;
1925;SDS011;964;42.606;23.588;2023-11-19T13:15:28;4.13;;;3.30;;
1925;SDS011;964;42.606;23.588;2023-11-19T13:17:55;4.17;;;3.77;;
1925;SDS011;964;42.606;23.588;2023-11-19T13:20:22;3.60;;;3.30;;
1925;SDS011;964;42.606;23.588;2023-11-19T13:22:55;3.47;;;3.10;;
1925;SDS011;964;42.606;23.588;2023-11-19T13:25:23;5.33;;;3.13;;
1925;SDS011;964;42.606;23.588;2023-11-19T13:27:51;6.30;;;3.27;;
1925;SDS011;964;42.606;23.588;2023-11-19T13:30:19;5.23;;;3.47;;
1925;SDS011;964;42.606;23.588;2023-11-19T13:32:47;4.87;;;3.10;;
1925;SDS011;964;42.606;23.588;2023-11-19T13:35:14;4.80;;;3.10;;
1925;SDS011;964;42.606;23.588;2023-11-19T13:37:42;3.50;;;3.20;;
1925;SDS011;964;42.606;23.588;2023-11-19T13:40:09;5.20;;;3.13;;
1925;SDS011;964;42.606;23.588;2023-11-19T13:42:40;5.23;;;3.47;;
1925;SDS011;964;42.606;23.588;2023-11-19T13:45:09;4.03;;;3.63;;
1925;SDS011;964;42.606;23.588;2023-11-19T13:47:38;3.53;;;3.23;;
1925;SDS011;964;42.606;23.588;2023-11-19T13:50:07;3.77;;;3.13;;
1925;SDS011;964;42.606;23.588;2023-11-19T13:52:35;5.87;;;3.70;;
1925;SDS011;964;42.606;23.588;2023-11-19T13:55:04;4.13;;;2.70;;
1925;SDS011;964;42.606;23.588;2023-11-19T13:57:32;4.97;;;3.70;;
1925;SDS011;964;42.606;23.588;2023-11-19T13:59:59;4.50;;;3.57;;
1925;SDS011;964;42.606;23.588;2023-11-19T14:02:29;7.10;;;3.50;;
1925;SDS011;964;42.606;23.588;2023-11-19T14:04:56;4.33;;;3.60;;
1925;SDS011;964;42.606;23.588;2023-11-19T14:07:24;5.03;;;3.37;;
1925;SDS011;964;42.606;23.588;2023-11-19T14:09:51;5.43;;;3.97;;
1925;SDS011;964;42.606;23.588;2023-11-19T14:12:17;6.20;;;3.97;;
1925;SDS011;964;42.606;23.588;2023-11-19T14:14:44;4.87;;;3.50;;
1925;SDS011;964;42.606;23.588;2023-11-19T14:17:11;6.67;;;4.20;;
1925;SDS011;964;42.606;23.588;2023-11-19T14:19:41;4.23;;;3.27;;
1925;SDS011;964;42.606;23.588;2023-11-19T14:22:09;3.90;;;3.47;;
1925;SDS011;964;42.606;23.588;2023-11-19T14:24:36;6.63;;;4.50;;
1925;SDS011;964;42.606;23.588;2023-11-19T14:27:05;6.97;;;3.90;;
1925;SDS011;964;42.606;23.588;2023-11-19T14:29:32;4.07;;;3.67;;
1925;SDS011;964;42.606;23.588;2023-11-19T14:32:00;4.77;;;3.90;;
1925;SDS011;964;42.606;23.588;2023-11-19T14:34:27;5.53;;;4.63;;
1925;SDS011;964;42.606;23.588;2023-11-19T14:36:56;6.90;;;4.57;;
1925;SDS011;964;42.606;23.588;2023-11-19T14:39:23;6.70;;;4.30;;
1925;SDS011;964;42.606;23.588;2023-11-19T14:41:50;4.30;;;3.90;;
1925;SDS011;964;42.606;23.588;2023-11-19T14:44:18;8.00;;;4.77;;
1925;SDS011;964;42.606;23.588;2023-11-19T14:46:46;10.03;;;5.00;;
1925;SDS011;964;42.606;23.588;2023-11-19T14:49:13;5.97;;;4.50;;
1925;SDS011;964;42.606;23.588;2023-11-19T14:51:40;5.90;;;4.80;;
1925;SDS011;964;42.606;23.588;2023-11-19T14:54:09;7.83;;;5.70;;
1925;SDS011;964;42.606;23.588;2023-11-19T14:56:36;9.23;;;7.60;;
1925;SDS011;964;42.606;23.588;2023-11-19T14:59:04;14.13;;;10.67;;
1925;SDS011;964;42.606;23.588;2023-11-19T15:01:31;13.20;;;10.60;;
1925;SDS011;964;42.606;23.588;2023-11-19T15:03:58;7.27;;;6.13;;
1925;SDS011;964;42.606;23.588;2023-11-19T15:06:24;8.33;;;7.50;;
1925;SDS011;964;42.606;23.588;2023-11-19T15:08:52;5.67;;;4.60;;
1925;SDS011;964;42.606;23.588;2023-11-19T15:11:21;7.53;;;4.50;;
1925;SDS011;964;42.606;23.588;2023-11-19T15:13:48;5.37;;;4.60;;
1925;SDS011;964;42.606;23.588;2023-11-19T15:16:14;5.17;;;4.30;;
1925;SDS011;964;42.606;23.588;2023-11-19T15:18:47;5.20;;;4.33;;
1925;SDS011;964;42.606;23.588;2023-11-19T15:21:14;7.53;;;4.50;;
1925;SDS011;964;42.606;23.588;2023-11-19T15:23:41;7.17;;;4.80;;
1925;SDS011;964;42.606;23.588;2023-11-19T15:26:08;7.53;;;5.30;;
1925;SDS011;964;42.606;23.588;2023-11-19T15:28:37;6.03;;;3.97;;